createdAt,value
2022-11-23T00:45:46.092Z,100072.41
2022-11-23T00:48:13.694Z,100080.81
2022-11-23T00:50:41.249Z,100075.22
2022-11-23T00:53:09.234Z,100085.59
2022-11-23T00:55:37.161Z,100079.22
2022-11-23T00:58:04.728Z,100077.59
2022-11-23T01:47:22.080Z,100095.59
2022-11-23T01:49:50.407Z,100100.34
2022-11-23T01:52:19.196Z,100099.19
2022-11-23T01:54:47.919Z,100098.38
2022-11-23T01:57:17.494Z,100095.59
2022-11-23T01:59:45.134Z,100095.59
2022-11-23T02:46:14.341Z,100080.75
2022-11-23T02:48:42.005Z,100084.75
2022-11-23T02:51:09.783Z,100086.75
2022-11-23T02:53:37.324Z,100089.94
2022-11-23T02:56:04.951Z,100087.94
2022-11-23T02:58:32.857Z,100086.34
2022-11-23T03:47:42.658Z,100099.88
2022-11-23T03:50:10.939Z,100099.88
2022-11-23T03:52:38.969Z,100094.28
2022-11-23T03:55:07.143Z,100099.06
2022-11-23T03:57:35.353Z,100097.06
2022-11-23T04:45:16.607Z,100094.19
2022-11-23T04:47:47.539Z,100098.28
2022-11-23T04:50:17.252Z,100104.66
2022-11-23T04:52:50.290Z,100104.66
2022-11-23T04:55:22.454Z,100112.69
2022-11-23T04:57:57.493Z,100108.72
2022-11-23T05:30:44.148Z,100100.31
2022-11-23T05:33:13.138Z,100112.69
2022-11-23T05:35:44.685Z,100114.31
2022-11-23T05:38:12.679Z,100114.31
2022-11-23T05:40:40.429Z,100108.72
2022-11-23T05:43:09.237Z,100114.31
2022-11-23T05:45:36.988Z,100110.31
2022-11-23T05:48:06.270Z,100108.72
2022-11-23T05:50:54.109Z,100107.09
2022-11-23T05:53:28.351Z,100109.53
2022-11-23T05:56:12.978Z,100110.31
2022-11-23T05:58:55.869Z,100109.53
2022-11-23T06:01:23.664Z,100113.13
2022-11-23T06:03:54.774Z,100110.31
2022-11-23T06:06:22.465Z,100112.31
2022-11-23T06:08:50.060Z,100115.91
2022-11-23T06:11:18.541Z,100116.72
2022-11-23T06:13:47.505Z,100111.13
2022-11-23T06:16:16.328Z,100114.72
2022-11-23T06:18:57.336Z,100110.31
2022-11-23T06:21:24.908Z,100117.09
2022-11-23T06:23:52.689Z,100107.91
2022-11-23T06:26:22.144Z,100117.09
2022-11-23T06:28:49.788Z,100125.91
2022-11-23T06:31:18.518Z,100124.31
2022-11-23T06:33:46.077Z,100126.72
2022-11-23T06:36:16.002Z,100129.50
2022-11-23T06:38:48.521Z,100132.69
2022-11-23T06:41:20.803Z,100129.91
2022-11-23T06:43:48.714Z,100127.09
2022-11-23T06:46:25.378Z,100137.09
2022-11-23T06:48:52.977Z,100131.50
2022-11-23T06:51:22.835Z,100128.72
2022-11-23T06:53:52.158Z,100135.13
2022-11-23T06:56:19.812Z,100137.91
2022-11-23T06:58:47.730Z,100142.31
2022-11-23T07:01:19.892Z,100139.91
2022-11-23T07:04:13.750Z,100132.69
2022-11-23T07:06:49.278Z,100146.69
2022-11-23T07:09:27.870Z,100138.28
2022-11-23T07:12:16.120Z,100138.28
2022-11-23T07:14:44.594Z,100139.91
2022-11-23T07:17:17.192Z,100147.09
2022-11-23T07:19:45.390Z,100153.91
2022-11-23T07:22:14.502Z,100156.31
2022-11-23T07:24:46.512Z,100155.50
2022-11-23T07:27:14.609Z,100157.50
2022-11-23T07:29:42.454Z,100156.31
2022-11-23T07:32:10.033Z,100159.09
2022-11-23T07:34:37.689Z,100163.88
2022-11-23T07:37:07.256Z,100170.28
2022-11-23T07:39:56.437Z,100168.69
2022-11-23T07:42:37.191Z,100180.69
2022-11-23T07:45:07.943Z,100184.66
2022-11-23T07:47:37.643Z,100178.28
2022-11-23T07:50:05.493Z,100191.06
2022-11-23T07:52:33.075Z,100194.66
2022-11-23T07:55:02.071Z,100190.25
2022-11-23T07:57:29.890Z,100197.47
2022-11-23T07:59:57.752Z,100197.47
2022-11-23T08:02:25.385Z,100197.47
2022-11-23T08:04:53.009Z,100186.28
2022-11-23T08:07:20.654Z,100181.88
2022-11-23T08:09:48.268Z,100197.47
2022-11-23T08:12:17.238Z,100197.47
2022-11-23T08:14:45.027Z,100197.47
2022-11-23T08:17:13.123Z,100197.47
2022-11-23T08:19:40.767Z,100197.47
2022-11-23T08:22:08.335Z,100202.25
2022-11-23T08:24:35.954Z,100197.47
2022-11-23T08:27:03.530Z,100193.88
2022-11-23T08:29:32.448Z,100191.88
2022-11-23T08:32:00.133Z,100203.06
2022-11-23T08:34:28.201Z,100205.06
2022-11-23T08:36:55.769Z,100204.25
2022-11-23T08:39:23.383Z,100205.84
2022-11-23T08:41:51.027Z,100202.25
2022-11-23T08:44:18.623Z,100196.66
2022-11-23T08:46:47.582Z,100201.91
2022-11-23T08:49:15.320Z,100205.84
2022-11-23T08:51:48.559Z,100204.69
2022-11-23T08:54:17.525Z,100209.47
2022-11-23T08:56:45.320Z,100215.06
2022-11-23T08:59:13.325Z,100215.06
2022-11-23T09:01:40.937Z,100218.69
2022-11-23T09:04:09.892Z,100215.91
2022-11-23T09:06:37.529Z,100209.47
2022-11-23T09:09:05.111Z,100208.66
2022-11-23T09:11:32.696Z,100201.44
2022-11-23T09:14:00.541Z,100196.66
2022-11-23T09:16:33.579Z,100201.44
2022-11-23T09:19:01.616Z,100211.47
2022-11-23T09:21:33.386Z,100203.06
2022-11-23T09:24:00.953Z,100203.06
2022-11-23T09:26:28.684Z,100201.44
2022-11-23T09:28:56.247Z,100203.06
2022-11-23T09:31:26.772Z,100198.25
2022-11-23T09:33:54.437Z,100196.66
2022-11-23T09:36:22.846Z,100188.66
2022-11-23T09:38:56.563Z,100189.47
2022-11-23T09:41:29.907Z,100187.84
2022-11-23T09:43:58.817Z,100185.84
2022-11-23T09:46:32.893Z,100191.06
2022-11-23T09:49:08.891Z,100189.06
2022-11-23T09:51:36.910Z,100190.25
2022-11-23T09:54:06.490Z,100191.47
2022-11-23T09:56:34.917Z,100190.25
2022-11-23T09:59:17.369Z,100190.25
2022-11-23T10:01:45.223Z,100184.66
2022-11-23T10:04:13.284Z,100184.66
2022-11-23T10:06:41.351Z,100183.06
2022-11-23T10:09:18.022Z,100188.66
2022-11-23T10:11:51.404Z,100179.06
2022-11-23T10:14:26.027Z,100174.66
2022-11-23T10:16:54.811Z,100177.47
2022-11-23T10:19:24.911Z,100177.88
2022-11-23T10:22:08.573Z,100170.69
2022-11-23T10:24:38.740Z,100169.88
2022-11-23T10:27:07.205Z,100169.50
2022-11-23T10:29:36.136Z,100168.69
2022-11-23T10:32:03.724Z,100163.88
2022-11-23T10:34:43.349Z,100169.50
2022-11-23T10:37:11.336Z,100172.28
2022-11-23T10:39:40.223Z,100183.47
2022-11-23T10:42:10.867Z,100183.94
2022-11-23T10:44:38.691Z,100177.13
2022-11-23T10:47:06.299Z,100186.72
2022-11-23T10:49:34.120Z,100171.53
2022-11-23T10:52:03.589Z,100175.53
2022-11-23T10:54:32.452Z,100172.72
2022-11-23T10:57:01.839Z,100167.50
2022-11-23T10:59:36.607Z,100182.31
2022-11-23T11:02:19.033Z,100171.94
2022-11-23T11:04:46.915Z,100181.13
2022-11-23T11:07:22.301Z,100167.13
2022-11-23T11:09:50.498Z,100164.34
2022-11-23T11:12:19.490Z,100163.53
2022-11-23T11:14:59.356Z,100159.94
2022-11-23T11:17:34.139Z,100163.16
2022-11-23T11:20:02.052Z,100158.75
2022-11-23T11:22:31.101Z,100160.34
2022-11-23T11:24:58.735Z,100155.94
2022-11-23T11:27:27.914Z,100156.75
2022-11-23T11:29:56.101Z,100157.56
2022-11-23T11:32:24.423Z,100151.97
2022-11-23T11:34:53.059Z,100146.34
2022-11-23T11:37:27.161Z,100150.34
2022-11-23T11:39:55.092Z,100157.56
2022-11-23T11:42:24.067Z,100156.38
2022-11-23T11:44:53.219Z,100157.56
2022-11-23T11:47:26.087Z,100158.34
2022-11-23T11:49:53.704Z,100159.16
2022-11-23T11:52:22.276Z,100166.34
2022-11-23T11:54:51.944Z,100165.56
2022-11-23T11:57:20.856Z,100158.78
2022-11-23T11:59:48.832Z,100166.00
2022-11-23T12:02:22.125Z,100167.97
2022-11-23T12:04:51.146Z,100161.56
2022-11-23T12:07:19.436Z,100163.56
2022-11-23T12:09:47.859Z,100163.22
2022-11-23T12:12:17.084Z,100162.38
2022-11-23T12:14:45.124Z,100156.78
2022-11-23T12:17:32.354Z,100157.59
2022-11-23T12:20:08.491Z,100151.19
2022-11-23T12:22:37.544Z,100148.38
2022-11-23T12:25:11.652Z,100150.00
2022-11-23T12:27:46.614Z,100152.00
2022-11-23T12:30:21.410Z,100157.22
2022-11-23T12:32:54.375Z,100152.81
2022-11-23T12:35:26.346Z,100150.00
2022-11-23T12:37:57.159Z,100147.22
2022-11-23T12:40:30.764Z,100147.22
2022-11-23T12:42:59.534Z,100143.22
2022-11-23T12:45:30.471Z,100138.44
2022-11-23T12:48:00.890Z,100149.63
2022-11-23T12:50:31.341Z,100142.03
2022-11-23T12:53:04.175Z,100150.44
2022-11-23T12:55:34.109Z,100150.44
2022-11-23T12:58:02.453Z,100148.44
2022-11-23T13:00:32.053Z,100150.44
2022-11-23T13:03:17.539Z,100152.03
2022-11-23T13:06:03.335Z,100152.03
2022-11-23T13:08:45.968Z,100154.03
2022-11-23T13:11:17.222Z,100163.22
2022-11-23T13:13:49.056Z,100152.03
2022-11-23T13:16:25.511Z,100153.66
2022-11-23T13:19:10.334Z,100153.66
2022-11-23T13:21:39.824Z,100153.66
2022-11-23T13:24:22.270Z,100153.66
2022-11-23T13:26:50.007Z,100150.03
2022-11-23T13:29:32.495Z,100147.25
2022-11-23T13:32:15.009Z,100153.66
2022-11-23T13:34:46.334Z,100142.44
2022-11-23T13:37:15.322Z,100152.03
2022-11-23T13:39:58.709Z,100141.66
2022-11-23T13:42:27.621Z,100157.25
2022-11-23T13:45:13.929Z,100159.25
2022-11-23T13:47:43.796Z,100159.25
2022-11-23T13:50:18.885Z,100149.69
2022-11-23T13:52:50.775Z,100152.47
2022-11-23T13:55:22.016Z,100148.50
2022-11-23T13:58:04.492Z,100151.28
2022-11-23T14:00:48.190Z,100149.69
2022-11-23T14:03:34.666Z,100156.88
2022-11-23T14:06:04.312Z,100159.69
2022-11-23T14:08:33.304Z,100159.25
2022-11-23T14:11:01.164Z,100152.47
2022-11-23T14:13:30.108Z,100153.66
2022-11-23T14:15:58.868Z,100153.66
2022-11-23T14:18:36.194Z,100156.84
2022-11-23T14:21:12.762Z,100152.03
2022-11-23T14:23:58.062Z,100158.06
2022-11-23T14:26:30.945Z,100159.25
2022-11-23T14:29:04.832Z,100155.28
2022-11-23T14:31:36.164Z,100150.50
2022-11-23T14:34:06.148Z,100160.88
2022-11-23T14:36:36.624Z,100158.06
2022-11-23T14:39:19.252Z,100151.28
2022-11-23T14:41:48.283Z,100154.09
2022-11-23T14:44:15.924Z,100155.28
2022-11-23T14:46:58.345Z,100156.88
2022-11-23T14:49:25.948Z,100162.47
2022-11-23T14:51:53.516Z,100168.09
2022-11-23T14:54:21.336Z,100165.28
2022-11-23T14:56:50.441Z,100173.69
2022-11-23T14:59:19.509Z,100176.47
2022-11-23T15:01:48.304Z,100172.88
2022-11-23T15:04:22.420Z,100176.47
2022-11-23T15:06:50.612Z,100172.06
2022-11-23T15:09:20.720Z,100167.28
2022-11-23T15:11:49.250Z,100173.69
2022-11-23T15:14:21.804Z,100178.47
2022-11-23T15:16:49.729Z,100180.47
2022-11-23T15:19:21.147Z,100188.47
2022-11-23T15:21:49.381Z,100184.88
2022-11-23T15:24:23.497Z,100196.06
2022-11-23T15:26:51.126Z,100193.28
2022-11-23T15:29:34.186Z,100197.66
2022-11-23T15:34:50.061Z,100208.06
2022-11-23T15:37:18.186Z,100208.88
2022-11-23T15:39:46.109Z,100218.44
2022-11-23T15:42:15.186Z,100208.06
2022-11-23T15:44:48.987Z,100225.66
2022-11-23T15:47:20.767Z,100216.06
2022-11-23T15:49:48.493Z,100220.88
2022-11-23T15:52:16.607Z,100218.06
2022-11-23T15:54:44.175Z,100220.88
2022-11-23T15:57:15.067Z,100220.06
2022-11-23T15:59:45.178Z,100225.66
2022-11-23T16:02:15.254Z,100225.66
2022-11-23T16:04:44.068Z,100217.19
2022-11-23T16:07:16.501Z,100223.66
2022-11-23T16:09:53.091Z,100229.25
2022-11-23T16:12:22.179Z,100225.66
2022-11-23T16:14:51.084Z,100220.06
2022-11-23T16:17:19.406Z,100225.66
2022-11-23T16:19:47.732Z,100234.06
2022-11-23T16:22:19.374Z,100239.66
2022-11-23T16:24:48.311Z,100231.25
2022-11-23T16:27:16.066Z,100224.47
2022-11-23T16:29:43.771Z,100232.88
2022-11-23T16:32:21.743Z,100221.66
2022-11-23T16:34:49.461Z,100217.25
2022-11-23T16:37:17.140Z,100222.84
2022-11-23T16:39:44.719Z,100220.88
2022-11-23T16:42:13.903Z,100220.88
2022-11-23T16:44:42.154Z,100215.28
2022-11-23T16:47:24.559Z,100228.06
2022-11-23T16:49:52.316Z,100227.25
2022-11-23T16:52:19.988Z,100221.66
2022-11-23T16:54:47.786Z,100232.88
2022-11-23T16:57:19.699Z,100226.47
2022-11-23T16:59:47.291Z,100226.47
2022-11-23T17:02:15.044Z,100221.59
2022-11-23T17:04:44.421Z,100227.25
2022-11-23T17:07:12.044Z,100226.06
2022-11-23T17:09:39.627Z,100229.69
2022-11-23T17:12:08.065Z,100228.88
2022-11-23T17:14:36.664Z,100223.28
2022-11-23T17:17:04.444Z,100235.28
2022-11-23T17:19:32.568Z,100233.66
2022-11-23T17:22:01.868Z,100233.66
2022-11-23T17:24:29.481Z,100237.28
2022-11-23T17:26:57.467Z,100234.47
2022-11-23T17:29:25.058Z,100241.25
2022-11-23T17:31:52.705Z,100235.66
2022-11-23T17:34:20.866Z,100244.84
2022-11-23T17:36:48.487Z,100246.84
2022-11-23T17:39:18.598Z,100244.84
2022-11-23T17:41:48.142Z,100255.25
2022-11-23T17:44:16.166Z,100244.06
2022-11-23T17:46:43.852Z,100251.25
2022-11-23T17:49:11.645Z,100256.06
2022-11-23T17:51:39.233Z,100253.66
2022-11-23T17:54:06.831Z,100248.84
2022-11-23T17:56:35.951Z,100252.44
2022-11-23T17:59:03.809Z,100258.06
2022-11-23T18:01:31.757Z,100266.44
2022-11-23T18:04:01.136Z,100264.84
2022-11-23T18:06:28.925Z,100262.03
2022-11-23T18:08:56.488Z,100261.66
2022-11-23T18:11:24.143Z,100264.84
2022-11-23T18:13:53.447Z,100266.44
2022-11-23T18:16:21.113Z,100266.44
2022-11-23T18:18:48.760Z,100271.25
2022-11-23T18:21:16.460Z,100270.44
2022-11-23T18:23:44.131Z,100264.84
2022-11-23T18:26:15.191Z,100274.84
2022-11-23T18:28:42.801Z,100271.25
2022-11-23T18:31:11.809Z,100276.84
2022-11-23T18:33:39.442Z,100272.03
2022-11-23T18:36:07.366Z,100277.63
2022-11-23T18:38:35.966Z,100277.63
2022-11-23T18:41:04.384Z,100274.03
2022-11-23T18:43:32.830Z,100271.25
2022-11-23T18:46:00.557Z,100278.81
2022-11-23T18:48:29.849Z,100283.22
2022-11-23T18:50:57.690Z,100288.84
2022-11-23T18:53:25.424Z,100294.44
2022-11-23T18:55:56.250Z,100300.84
2022-11-23T18:58:27.865Z,100297.22
2022-11-23T19:00:55.666Z,100298.41
2022-11-23T19:03:23.324Z,100298.41
2022-11-23T19:05:52.431Z,100299.22
2022-11-23T19:08:20.347Z,100296.44
2022-11-23T19:10:48.233Z,100298.41
2022-11-23T19:13:15.889Z,100305.63
2022-11-23T19:15:43.545Z,100300.03
2022-11-23T19:18:11.245Z,100304.00
2022-11-23T19:20:40.065Z,100300.03
2022-11-23T19:23:09.027Z,100302.03
2022-11-23T19:25:36.611Z,100300.03
2022-11-23T19:28:04.509Z,100311.22
2022-11-23T19:30:32.125Z,100310.41
2022-11-23T19:32:59.766Z,100314.03
2022-11-23T19:35:27.475Z,100317.59
2022-11-23T19:37:55.120Z,100316.00
2022-11-23T19:40:24.857Z,100327.22
2022-11-23T19:42:52.764Z,100316.81
2022-11-23T19:45:20.614Z,100315.22
2022-11-23T19:47:48.611Z,100320.00
2022-11-23T19:50:16.596Z,100320.81
2022-11-23T19:53:10.663Z,100320.81
2022-11-23T19:55:34.958Z,100318.00
2022-11-23T19:58:02.559Z,100319.19
2022-11-23T20:00:30.284Z,100320.81
2022-11-23T20:02:59.460Z,100330.00
2022-11-23T20:05:27.284Z,100322.00
2022-11-23T20:07:55.015Z,100324.78
2022-11-23T20:10:22.971Z,100327.22
2022-11-23T20:12:52.017Z,100329.19
2022-11-23T20:15:19.871Z,100332.81
2022-11-23T20:17:48.893Z,100320.81
2022-11-23T20:20:17.278Z,100330.41
2022-11-23T20:22:45.031Z,100334.00
2022-11-23T20:25:13.223Z,100343.19
2022-11-23T20:27:41.920Z,100341.59
2022-11-23T20:30:11.540Z,100347.19
2022-11-23T20:32:39.119Z,100355.56
2022-11-23T20:35:07.235Z,100357.19
2022-11-23T20:37:35.191Z,100354.38
2022-11-23T20:40:02.870Z,100360.00
2022-11-23T20:42:30.518Z,100369.56
2022-11-23T20:44:58.154Z,100357.56
2022-11-23T20:47:27.981Z,100363.97
2022-11-23T20:49:55.688Z,100361.19
2022-11-23T20:52:23.526Z,100366.78
2022-11-23T20:54:51.819Z,100358.38
2022-11-23T20:57:21.476Z,100363.16
2022-11-23T20:59:49.061Z,100363.16
2022-11-23T21:02:16.830Z,100356.78
2022-11-23T21:04:46.001Z,100363.97
2022-11-23T21:07:14.245Z,100369.56
2022-11-23T21:09:41.896Z,100377.97
2022-11-23T21:12:27.133Z,100382.75
2022-11-23T21:14:54.762Z,100391.16
2022-11-23T21:17:22.694Z,100384.75
2022-11-23T21:19:51.724Z,100388.72
2022-11-23T21:22:19.682Z,100383.13
2022-11-23T21:24:47.637Z,100389.16
2022-11-23T21:27:16.635Z,100388.72
2022-11-23T21:29:45.429Z,100393.94
2022-11-23T21:32:14.637Z,100395.94
2022-11-23T21:34:42.247Z,100395.13
2022-11-23T21:37:11.413Z,100407.94
2022-11-23T21:39:39.120Z,100407.13
2022-11-23T21:42:06.939Z,100412.75
2022-11-23T21:44:34.762Z,100415.53
2022-11-23T21:47:02.970Z,100420.31
2022-11-23T21:49:30.630Z,100418.34
2022-11-23T21:51:58.240Z,100416.69
2022-11-23T21:54:27.193Z,100422.28
2022-11-23T21:56:55.041Z,100426.72
2022-11-23T21:59:23.294Z,100426.72
2022-11-23T22:01:51.032Z,100427.88
2022-11-23T22:04:19.171Z,100427.88
2022-11-23T22:06:47.171Z,100425.09
2022-11-23T22:09:14.985Z,100433.50
2022-11-23T22:11:44.190Z,100427.88
2022-11-23T22:14:12.814Z,100436.28
2022-11-23T22:16:41.133Z,100435.13
2022-11-23T22:19:10.726Z,100434.28
2022-11-23T22:21:38.573Z,100433.50
2022-11-23T22:24:06.580Z,100432.69
2022-11-23T22:26:34.608Z,100438.28
2022-11-23T22:29:06.107Z,100444.69
2022-11-23T22:31:34.181Z,100444.69
2022-11-23T22:34:02.809Z,100443.06
2022-11-23T22:36:30.836Z,100450.28
2022-11-23T22:39:01.671Z,100443.06
2022-11-23T22:41:30.153Z,100448.66
2022-11-23T22:43:58.029Z,100443.06
2022-11-23T22:46:27.198Z,100445.88
2022-11-23T22:48:59.319Z,100453.06
2022-11-23T22:51:27.818Z,100454.25
2022-11-23T22:53:55.584Z,100452.66
2022-11-23T22:56:23.627Z,100464.66
2022-11-23T22:58:51.453Z,100458.25
2022-11-23T23:01:20.166Z,100452.66
2022-11-23T23:03:49.577Z,100455.44
2022-11-23T23:06:18.033Z,100455.44
2022-11-23T23:08:45.796Z,100459.44
2022-11-23T23:11:13.670Z,100463.84
2022-11-23T23:13:41.622Z,100451.03
2022-11-23T23:45:36.839Z,100485.81
2022-11-23T23:48:06.468Z,100479.41
2022-11-23T23:50:34.340Z,100485.34
2022-11-23T23:53:02.105Z,100488.16
2022-11-23T23:55:29.823Z,100480.56
2022-11-23T23:57:57.517Z,100486.97
